Terminal Aerodrome Forecast
Issued by NWS

Home | Current Version | Previous Version | Text Only | Print | Product List | Glossary On
Versions: 1 2 3 4 5 6 7 8 9 10 11 12 13 14 15
253
FTUS46 KLOX 251121
TAFWJF
TAF
KWJF 251121Z 2512/2612 25010KT P6SM BKN150
     FM251800 22015KT P6SM SCT150
     FM252100 23020G28KT P6SM SCT150
     FM260200 24014KT P6SM SCT150
     FM260600 25008KT P6SM SCT150=

USA.gov is the U.S. government's official web portal to all federal, state and local government web resources and services.